Time;durP1;ratioP1;P1;durP2;ratioP2;P2;SDS_P1;SDS_P2;PMS_P1;PMS_P2;Temp;Humidity;BMP_temperature;BMP_pressure;BME280_temperature;BME280_humidity;BME280_pressure;Samples;Min_cycle;Max_cycle;Signal;HPM_P1;HPM_P2
2024/01/04 00:01:42;;;;;;;5.82;2.25;;;;;;;-142.43;100.00;63430.59;4981516;28;20078;-78
2024/01/04 00:04:09;;;;;;;4.65;2.25;;;;;;;-142.43;100.00;63430.59;4975563;28;20081;-80
2024/01/04 00:06:41;;;;;;;3.53;2.03;;;;;;;-142.43;100.00;63430.59;4982313;28;20131;-79
2024/01/04 00:09:08;;;;;;;7.07;2.45;;;;;;;-142.43;100.00;63430.59;4980671;28;20117;-80
2024/01/04 00:11:35;;;;;;;5.47;2.67;;;;;;;-142.43;100.00;63430.59;4971738;28;20134;-78
2024/01/04 00:16:33;;;;;;;19.55;3.00;;;;;;;-142.43;100.00;63430.59;4982288;28;20054;-82
2024/01/04 00:19:02;;;;;;;6.35;2.92;;;;;;;-142.43;100.00;63430.59;4979934;28;20050;-82
2024/01/04 00:21:29;;;;;;;6.85;3.00;;;;;;;-142.43;100.00;63430.59;4981533;28;20078;-81
2024/01/04 00:23:57;;;;;;;5.65;3.33;;;;;;;-142.43;100.00;63430.59;4975206;28;20154;-84
2024/01/04 00:26:24;;;;;;;5.47;3.00;;;;;;;-142.43;100.00;63430.59;4957708;28;20082;-83
2024/01/04 00:28:50;;;;;;;7.32;3.60;;;;;;;-142.43;100.00;63430.59;4936358;29;20059;-82
2024/01/04 00:31:17;;;;;;;6.90;3.38;;;;;;;-142.43;100.00;63430.59;4957917;29;20145;-82
2024/01/04 00:33:44;;;;;;;7.72;3.55;;;;;;;-142.43;100.00;63430.59;4958076;29;20134;-84
2024/01/04 00:36:13;;;;;;;5.82;3.70;;;;;;;-142.43;100.00;63430.59;4958216;29;20043;-80
2024/01/04 00:38:39;;;;;;;8.23;3.92;;;;;;;-142.43;100.00;63430.59;4958940;28;20059;-83
2024/01/04 00:41:06;;;;;;;6.70;3.97;;;;;;;-142.43;100.00;63430.59;4977686;28;20041;-84
2024/01/04 00:43:33;;;;;;;7.22;4.28;;;;;;;-142.43;100.00;63430.59;4975375;29;20035;-82
2024/01/04 00:46:00;;;;;;;8.95;4.53;;;;;;;-142.43;100.00;63430.59;4970820;29;20068;-79
2024/01/04 00:48:26;;;;;;;9.07;4.30;;;;;;;-142.43;100.00;63430.59;4967597;29;20082;-80
2024/01/04 00:50:53;;;;;;;10.98;5.07;;;;;;;-142.43;100.00;63430.59;4967259;29;20097;-79
2024/01/04 00:53:21;;;;;;;10.00;5.13;;;;;;;-142.43;100.00;63430.59;4971678;29;20062;-79
2024/01/04 00:55:48;;;;;;;9.15;4.95;;;;;;;-142.43;100.00;63430.59;4970312;29;20075;-80
2024/01/04 00:58:14;;;;;;;6.68;4.32;;;;;;;-142.43;100.00;63430.59;4967970;29;20111;-81
2024/01/04 01:00:41;;;;;;;13.27;4.45;;;;;;;-142.43;100.00;63430.59;4967361;29;20066;-80
2024/01/04 01:03:07;;;;;;;10.90;4.25;;;;;;;-142.43;100.00;63430.59;4967666;29;20111;-81
2024/01/04 01:05:34;;;;;;;9.23;4.07;;;;;;;-142.43;100.00;63430.59;4967429;29;20086;-81
2024/01/04 01:08:01;;;;;;;7.13;3.95;;;;;;;-142.43;100.00;63430.59;4965261;29;20071;-80
2024/01/04 01:10:29;;;;;;;7.88;3.90;;;;;;;-142.43;100.00;63430.59;4962593;29;20083;-79
2024/01/04 01:12:56;;;;;;;8.10;4.45;;;;;;;-142.43;100.00;63430.59;4955641;29;20062;-79
2024/01/04 01:15:23;;;;;;;15.52;4.72;;;;;;;-142.43;100.00;63430.59;4961555;29;20067;-80
2024/01/04 01:17:49;;;;;;;9.65;4.30;;;;;;;-142.43;100.00;63430.59;4962081;29;20126;-80
2024/01/04 01:20:16;;;;;;;13.93;4.95;;;;;;;-142.43;100.00;63430.59;4959376;29;20142;-80
2024/01/04 01:22:42;;;;;;;11.55;5.60;;;;;;;-142.43;100.00;63430.59;4960529;29;20114;-80
2024/01/04 01:25:09;;;;;;;14.77;5.22;;;;;;;-142.43;100.00;63430.59;4964408;29;20111;-80
2024/01/04 01:27:37;;;;;;;10.20;5.53;;;;;;;-142.43;100.00;63430.59;4967140;29;20051;-81
2024/01/04 01:30:04;;;;;;;9.80;5.00;;;;;;;-142.43;100.00;63430.59;4963791;29;20051;-80
2024/01/04 01:32:31;;;;;;;12.07;4.70;;;;;;;-142.43;100.00;63430.59;4964294;29;20142;-80
2024/01/04 01:34:58;;;;;;;9.98;4.22;;;;;;;-142.43;100.00;63430.59;4965687;29;20075;-80
2024/01/04 01:37:24;;;;;;;8.75;3.95;;;;;;;-142.43;100.00;63430.59;4966212;28;20047;-80
2024/01/04 01:39:51;;;;;;;10.43;4.90;;;;;;;-142.43;100.00;63430.59;4962650;28;20062;-79
2024/01/04 01:42:20;;;;;;;10.35;5.13;;;;;;;-142.43;100.00;63430.59;4971396;29;20109;-79
2024/01/04 01:44:48;;;;;;;13.02;5.05;;;;;;;-142.43;100.00;63430.59;4972059;29;20051;-80
2024/01/04 01:47:16;;;;;;;11.00;4.75;;;;;;;-142.43;100.00;63430.59;4968604;29;20487;-80
2024/01/04 01:49:42;;;;;;;14.10;5.53;;;;;;;-142.43;100.00;63430.59;4967210;29;20043;-80
2024/01/04 01:52:09;;;;;;;9.65;4.90;;;;;;;-142.43;100.00;63430.59;4962659;29;20142;-80
2024/01/04 01:54:36;;;;;;;11.60;5.13;;;;;;;-142.43;100.00;63430.59;4961944;29;20051;-80
2024/01/04 01:57:03;;;;;;;14.70;6.00;;;;;;;-142.43;100.00;63430.59;4960820;29;20133;-79
2024/01/04 01:59:29;;;;;;;8.77;5.38;;;;;;;-142.43;100.00;63430.59;4961698;29;20352;-79
2024/01/04 02:01:57;;;;;;;11.13;5.72;;;;;;;-142.43;100.00;63430.59;4955833;29;20058;-81
2024/01/04 02:04:24;;;;;;;13.07;6.38;;;;;;;-142.43;100.00;63430.59;4963865;29;20110;-81
2024/01/04 02:06:51;;;;;;;11.50;5.03;;;;;;;-142.43;100.00;63430.59;4962376;29;20480;-80
2024/01/04 02:09:17;;;;;;;12.35;6.22;;;;;;;-142.43;100.00;63430.59;4961607;29;20138;-81
2024/01/04 02:11:45;;;;;;;16.42;6.85;;;;;;;-142.43;100.00;63430.59;4959776;29;20138;-81
2024/01/04 02:14:11;;;;;;;12.00;6.30;;;;;;;-142.43;100.00;63430.59;4958173;29;20525;-81
2024/01/04 02:16:38;;;;;;;14.27;6.47;;;;;;;-142.43;100.00;63430.59;4963077;29;20137;-81
2024/01/04 02:19:09;;;;;;;11.32;6.22;;;;;;;-142.43;100.00;63430.59;4960415;29;20047;-81
2024/01/04 02:21:37;;;;;;;10.57;5.82;;;;;;;-142.43;100.00;63430.59;4953142;29;20059;-81
2024/01/04 02:24:05;;;;;;;12.48;5.72;;;;;;;-142.43;100.00;63430.59;4964635;29;20111;-81
2024/01/04 02:26:32;;;;;;;14.48;5.57;;;;;;;-142.43;100.00;63430.59;4968833;29;20441;-81
2024/01/04 02:28:59;;;;;;;13.27;5.78;;;;;;;-142.43;100.00;63430.59;4967173;29;20106;-80
2024/01/04 02:31:26;;;;;;;14.52;6.70;;;;;;;-142.43;100.00;63430.59;4968682;29;20047;-79
2024/01/04 02:33:52;;;;;;;12.77;6.47;;;;;;;-142.43;100.00;63430.59;4968702;29;20071;-81
2024/01/04 02:36:19;;;;;;;12.40;6.93;;;;;;;-142.43;100.00;63430.59;4967328;29;20087;-80
2024/01/04 02:38:46;;;;;;;12.07;4.97;;;;;;;-142.43;100.00;63430.59;4966964;29;20087;-79
2024/01/04 02:41:14;;;;;;;10.85;5.05;;;;;;;-142.43;100.00;63430.59;4968548;29;20074;-80
2024/01/04 02:43:40;;;;;;;13.07;4.85;;;;;;;-142.43;100.00;63430.59;4967002;29;20085;-80
2024/01/04 02:46:07;;;;;;;9.15;4.82;;;;;;;-142.43;100.00;63430.59;4967984;29;20043;-80
2024/01/04 02:48:33;;;;;;;10.68;4.95;;;;;;;-142.43;100.00;63430.59;4957996;28;20075;-79
2024/01/04 02:51:00;;;;;;;13.55;5.10;;;;;;;-142.43;100.00;63430.59;4965452;29;20115;-80
2024/01/04 02:53:27;;;;;;;13.40;5.00;;;;;;;-142.43;100.00;63430.59;4965363;29;20055;-80
2024/01/04 02:55:53;;;;;;;10.98;4.82;;;;;;;-142.43;100.00;63430.59;4965936;29;20039;-79
2024/01/04 02:58:21;;;;;;;10.13;5.13;;;;;;;-142.43;100.00;63430.59;4966443;29;20110;-80
2024/01/04 03:00:48;;;;;;;9.80;5.35;;;;;;;-142.43;100.00;63430.59;4966149;29;20098;-79
2024/01/04 03:03:15;;;;;;;16.10;5.50;;;;;;;-142.43;100.00;63430.59;4966546;29;20094;-80
2024/01/04 03:05:41;;;;;;;7.93;4.80;;;;;;;-142.43;100.00;63430.59;4966851;29;20071;-79
2024/01/04 03:08:08;;;;;;;9.52;5.07;;;;;;;-142.43;100.00;63430.59;4959835;29;20067;-79
2024/01/04 03:10:35;;;;;;;11.52;5.03;;;;;;;-142.43;100.00;63430.59;4968434;29;20062;-81
2024/01/04 03:13:03;;;;;;;8.13;5.68;;;;;;;-142.43;100.00;63430.59;4961325;29;20046;-81
2024/01/04 03:15:30;;;;;;;8.50;5.72;;;;;;;-142.43;100.00;63430.59;4969477;29;20062;-82
2024/01/04 03:17:56;;;;;;;10.48;5.10;;;;;;;-142.43;100.00;63430.59;4968063;29;20517;-80
2024/01/04 03:20:23;;;;;;;14.02;5.18;;;;;;;-142.43;100.00;63430.59;4967937;29;20085;-82
2024/01/04 03:22:50;;;;;;;11.13;5.72;;;;;;;-142.43;100.00;63430.59;4968449;29;20063;-81
2024/01/04 03:25:16;;;;;;;9.40;5.43;;;;;;;-142.43;100.00;63430.59;4968749;29;20047;-82
2024/01/04 03:27:44;;;;;;;15.13;6.22;;;;;;;-142.43;100.00;63430.59;4965632;29;20114;-82
2024/01/04 03:30:11;;;;;;;13.18;5.90;;;;;;;-142.43;100.00;63430.59;4964233;29;20047;-81
2024/01/04 03:32:39;;;;;;;13.30;5.20;;;;;;;-142.43;100.00;63430.59;4957271;29;20510;-81
2024/01/04 03:35:08;;;;;;;12.73;6.32;;;;;;;-142.43;100.00;63430.59;4966170;29;20538;-81
2024/01/04 03:37:34;;;;;;;12.13;6.05;;;;;;;-142.43;100.00;63430.59;4967439;29;20517;-80
2024/01/04 03:40:02;;;;;;;10.05;5.00;;;;;;;-142.43;100.00;63430.59;4967512;29;20114;-81
2024/01/04 03:42:28;;;;;;;11.18;5.82;;;;;;;-142.43;100.00;63430.59;4967925;29;20087;-81
2024/01/04 03:44:55;;;;;;;14.13;6.25;;;;;;;-142.43;100.00;63430.59;4967669;29;20043;-81
2024/01/04 03:47:22;;;;;;;10.95;5.57;;;;;;;-142.43;100.00;63430.59;4968798;29;20058;-82
2024/01/04 03:49:50;;;;;;;12.40;5.82;;;;;;;-142.43;100.00;63430.59;4962178;29;20086;-81
2024/01/04 03:52:16;;;;;;;16.95;5.70;;;;;;;-142.43;100.00;63430.59;4973829;29;20058;-81
2024/01/04 03:54:43;;;;;;;13.30;5.95;;;;;;;-142.43;100.00;63430.59;4972586;29;20058;-81
2024/01/04 03:57:10;;;;;;;11.60;5.03;;;;;;;-142.43;100.00;63430.59;4971794;29;20059;-81
2024/01/04 03:59:37;;;;;;;10.68;4.32;;;;;;;-142.43;100.00;63430.59;4963885;29;20111;-81
2024/01/04 04:02:04;;;;;;;10.05;4.78;;;;;;;-142.43;100.00;63430.59;4963464;28;20057;-81
2024/01/04 04:04:31;;;;;;;16.58;5.75;;;;;;;-142.43;100.00;63430.59;4956340;29;20063;-82
2024/01/04 04:06:59;;;;;;;11.40;5.40;;;;;;;-142.43;100.00;63430.59;4961660;29;20091;-79
2024/01/04 04:09:25;;;;;;;10.13;5.07;;;;;;;-142.43;100.00;63430.59;4964242;29;20085;-81
2024/01/04 04:11:52;;;;;;;9.27;5.00;;;;;;;-142.43;100.00;63430.59;4957086;29;20051;-81
2024/01/04 04:14:19;;;;;;;12.27;4.85;;;;;;;-142.43;100.00;63430.59;4960915;29;20118;-82
2024/01/04 04:16:45;;;;;;;10.57;5.05;;;;;;;-142.43;100.00;63430.59;4960290;29;20510;-80
2024/01/04 04:19:12;;;;;;;11.60;4.93;;;;;;;-142.43;100.00;63430.59;4959252;29;20110;-81
2024/01/04 04:21:39;;;;;;;12.13;6.10;;;;;;;-142.43;100.00;63430.59;4960064;29;20082;-81
2024/01/04 04:24:07;;;;;;;12.00;5.45;;;;;;;-142.43;100.00;63430.59;4959068;29;20430;-82
2024/01/04 04:26:33;;;;;;;11.63;5.35;;;;;;;-142.43;100.00;63430.59;4957124;29;20072;-81
2024/01/04 04:29:00;;;;;;;13.90;5.65;;;;;;;-142.43;100.00;63430.59;4964012;29;20074;-81
2024/01/04 04:31:27;;;;;;;14.02;5.43;;;;;;;-142.43;100.00;63430.59;4961755;29;20086;-82
2024/01/04 04:33:54;;;;;;;11.25;5.47;;;;;;;-142.43;100.00;63430.59;4967348;29;20047;-81
2024/01/04 04:36:20;;;;;;;13.20;6.00;;;;;;;-142.43;100.00;63430.59;4960120;29;20055;-81
2024/01/04 04:38:47;;;;;;;10.90;6.07;;;;;;;-142.43;100.00;63430.59;4967137;29;20075;-82
2024/01/04 04:41:15;;;;;;;15.98;5.95;;;;;;;-142.43;100.00;63430.59;4961993;29;20181;-82
2024/01/04 04:43:42;;;;;;;13.35;5.65;;;;;;;-142.43;100.00;63430.59;4965026;29;20047;-82
2024/01/04 04:46:10;;;;;;;13.20;5.60;;;;;;;-142.43;100.00;63430.59;4964853;29;20129;-82
2024/01/04 04:48:37;;;;;;;16.38;6.35;;;;;;;-142.43;100.00;63430.59;4963776;29;20597;-82
2024/01/04 04:51:04;;;;;;;12.10;5.65;;;;;;;-142.43;100.00;63430.59;4958388;29;20062;-82
2024/01/04 04:53:30;;;;;;;12.55;5.68;;;;;;;-142.43;100.00;63430.59;4962176;29;20083;-83
2024/01/04 04:55:57;;;;;;;10.82;6.15;;;;;;;-142.43;100.00;63430.59;4962170;29;20047;-81
2024/01/04 04:58:25;;;;;;;13.25;6.65;;;;;;;-142.43;100.00;63430.59;4961865;29;20124;-80
2024/01/04 05:00:52;;;;;;;10.80;5.85;;;;;;;-142.43;100.00;63430.59;4957758;29;20082;-81
2024/01/04 05:03:18;;;;;;;17.33;5.93;;;;;;;-142.43;100.00;63430.59;4956449;29;20152;-82
2024/01/04 05:05:45;;;;;;;14.10;5.60;;;;;;;-142.43;100.00;63430.59;4961424;29;20050;-81
2024/01/04 05:08:11;;;;;;;11.68;5.43;;;;;;;-142.43;100.00;63430.59;4961851;29;20128;-81
2024/01/04 05:10:38;;;;;;;9.45;4.72;;;;;;;-142.43;100.00;63430.59;4962165;29;20134;-80
2024/01/04 05:13:05;;;;;;;7.50;4.50;;;;;;;-142.43;100.00;63430.59;4953824;29;20048;-81
2024/01/04 05:15:34;;;;;;;11.75;4.15;;;;;;;-142.43;100.00;63430.59;4963286;29;20047;-81
2024/01/04 05:18:00;;;;;;;5.60;3.03;;;;;;;-142.43;100.00;63430.59;4964767;29;20058;-79
2024/01/04 05:20:27;;;;;;;6.05;2.70;;;;;;;-142.43;100.00;63430.59;4967434;29;20090;-81
2024/01/04 05:22:54;;;;;;;3.22;2.20;;;;;;;-142.43;100.00;63430.59;4967554;29;20051;-81
2024/01/04 05:25:20;;;;;;;5.28;2.67;;;;;;;-142.43;100.00;63430.59;4967017;29;20081;-82
2024/01/04 05:27:47;;;;;;;3.90;2.35;;;;;;;-142.43;100.00;63430.59;4967128;29;20074;-83
2024/01/04 05:30:14;;;;;;;1.77;1.60;;;;;;;-142.43;100.00;63430.59;4967535;29;20082;-81
2024/01/04 05:32:42;;;;;;;5.68;2.25;;;;;;;-142.43;100.00;63430.59;4968358;29;20089;-79
2024/01/04 05:35:09;;;;;;;3.67;1.98;;;;;;;-142.43;100.00;63430.59;4962621;29;20517;-81
2024/01/04 05:37:35;;;;;;;4.28;2.80;;;;;;;-142.43;100.00;63430.59;4969770;29;20059;-81
2024/01/04 05:40:03;;;;;;;3.92;2.92;;;;;;;-142.43;100.00;63430.59;4969177;29;20067;-80
2024/01/04 05:42:30;;;;;;;5.80;3.30;;;;;;;-142.43;100.00;63430.59;4967543;29;20086;-78
2024/01/04 05:44:56;;;;;;;4.95;2.78;;;;;;;-142.43;100.00;63430.59;4966562;29;20086;-81
2024/01/04 05:47:23;;;;;;;3.25;2.45;;;;;;;-142.43;100.00;63430.59;4968836;29;20066;-82
2024/01/04 05:49:51;;;;;;;3.78;2.72;;;;;;;-142.43;100.00;63430.59;4967578;29;20461;-82
2024/01/04 05:52:17;;;;;;;5.30;3.28;;;;;;;-142.43;100.00;63430.59;4961805;29;20079;-81
2024/01/04 05:54:44;;;;;;;4.40;2.30;;;;;;;-142.43;100.00;63430.59;4962752;29;20082;-81
2024/01/04 05:57:11;;;;;;;3.10;2.45;;;;;;;-142.43;100.00;63430.59;4969052;29;20058;-81
2024/01/04 05:59:37;;;;;;;5.47;2.90;;;;;;;-142.43;100.00;63430.59;4968339;29;20051;-82
2024/01/04 06:02:04;;;;;;;4.97;2.92;;;;;;;-142.43;100.00;63430.59;4968634;29;20067;-80
2024/01/04 06:04:31;;;;;;;7.35;3.28;;;;;;;-142.43;100.00;63430.59;4970471;29;20498;-80
2024/01/04 06:06:58;;;;;;;4.70;3.42;;;;;;;-142.43;100.00;63430.59;4970560;29;20215;-80
2024/01/04 06:09:25;;;;;;;8.38;4.10;;;;;;;-142.43;100.00;63430.59;4962416;29;20051;-80
2024/01/04 06:11:52;;;;;;;5.13;3.85;;;;;;;-142.43;100.00;63430.59;4969751;29;20437;-81
2024/01/04 06:14:19;;;;;;;5.63;4.20;;;;;;;-142.43;100.00;63430.59;4962311;29;20058;-82
2024/01/04 06:16:46;;;;;;;7.22;4.13;;;;;;;-142.43;100.00;63430.59;4968780;29;20057;-81
2024/01/04 06:19:13;;;;;;;7.47;4.00;;;;;;;-142.43;100.00;63430.59;4964173;29;20071;-82
2024/01/04 06:21:39;;;;;;;7.57;4.13;;;;;;;-142.43;100.00;63430.59;4965972;29;20054;-82
2024/01/04 06:24:07;;;;;;;7.03;4.20;;;;;;;-142.43;100.00;63430.59;4967284;28;20130;-83
2024/01/04 06:26:34;;;;;;;5.03;3.40;;;;;;;-142.43;100.00;63430.59;4966113;29;20078;-83
2024/01/04 06:29:01;;;;;;;5.13;3.97;;;;;;;-142.43;100.00;63430.59;4966542;29;20073;-82
2024/01/04 06:31:27;;;;;;;5.38;3.70;;;;;;;-142.43;100.00;63430.59;4966825;29;20055;-82
2024/01/04 06:33:54;;;;;;;8.50;3.33;;;;;;;-142.43;100.00;63430.59;4966212;29;20111;-82
2024/01/04 06:36:20;;;;;;;4.93;3.60;;;;;;;-142.43;100.00;63430.59;4962765;29;20046;-82
2024/01/04 06:38:47;;;;;;;7.30;3.63;;;;;;;-142.43;100.00;63430.59;4962638;29;20089;-82
2024/01/04 06:41:15;;;;;;;6.65;4.05;;;;;;;-142.43;100.00;63430.59;4957294;29;20075;-82
2024/01/04 06:43:42;;;;;;;7.70;3.55;;;;;;;-142.43;100.00;63430.59;4960159;29;20085;-80
2024/01/04 06:46:08;;;;;;;6.38;4.30;;;;;;;-142.43;100.00;63430.59;4960344;29;20498;-82
2024/01/04 06:48:35;;;;;;;8.20;3.67;;;;;;;-142.43;100.00;63430.59;4962389;29;20135;-81
2024/01/04 06:51:02;;;;;;;8.90;3.40;;;;;;;-142.43;100.00;63430.59;4968890;29;20070;-81
2024/01/04 06:53:28;;;;;;;3.72;2.88;;;;;;;-142.43;100.00;63430.59;4966101;29;20086;-82
2024/01/04 06:55:55;;;;;;;3.67;2.97;;;;;;;-142.43;100.00;63430.59;4965510;29;20510;-81
2024/01/04 06:58:23;;;;;;;3.42;2.42;;;;;;;-142.43;100.00;63430.59;4965814;29;20051;-82
2024/01/04 07:00:49;;;;;;;2.88;2.55;;;;;;;-142.43;100.00;63430.59;4965309;29;20075;-82
2024/01/04 07:03:19;;;;;;;7.72;2.80;;;;;;;-142.43;100.00;63430.59;4972010;29;20093;-81
2024/01/04 07:05:46;;;;;;;3.67;2.50;;;;;;;-142.43;100.00;63430.59;4967655;29;20047;-81
2024/01/04 07:08:12;;;;;;;4.28;2.83;;;;;;;-142.43;100.00;63430.59;4967279;29;20547;-81
2024/01/04 07:10:40;;;;;;;4.70;2.70;;;;;;;-142.43;100.00;63430.59;4963165;29;20055;-82
2024/01/04 07:13:07;;;;;;;4.60;2.90;;;;;;;-142.43;100.00;63430.59;4964631;29;20086;-82
2024/01/04 07:15:35;;;;;;;6.13;3.45;;;;;;;-142.43;100.00;63430.59;4963360;29;20431;-80
2024/01/04 07:18:01;;;;;;;7.05;3.70;;;;;;;-142.43;100.00;63430.59;4964239;29;20073;-80
2024/01/04 07:20:28;;;;;;;8.52;6.03;;;;;;;-142.43;100.00;63430.59;4963448;29;20541;-80
2024/01/04 07:22:55;;;;;;;9.73;5.68;;;;;;;-142.43;100.00;63430.59;4961832;29;20122;-80
2024/01/04 07:25:23;;;;;;;7.57;4.50;;;;;;;-142.43;100.00;63430.59;4967212;29;20085;-81
2024/01/04 07:27:50;;;;;;;6.78;4.82;;;;;;;-142.43;100.00;63430.59;4964667;29;20047;-81
2024/01/04 07:30:16;;;;;;;7.10;4.88;;;;;;;-142.43;100.00;63430.59;4961914;29;20082;-80
2024/01/04 07:32:45;;;;;;;8.93;5.32;;;;;;;-142.43;100.00;63430.59;4964977;29;20616;-82
2024/01/04 07:35:12;;;;;;;10.63;6.55;;;;;;;-142.43;100.00;63430.59;4959213;28;20051;-82
2024/01/04 07:37:39;;;;;;;12.52;8.13;;;;;;;-142.43;100.00;63430.59;4965300;29;20051;-82
2024/01/04 07:40:07;;;;;;;15.20;7.78;;;;;;;-142.43;100.00;63430.59;4964032;29;20051;-82
2024/01/04 07:42:34;;;;;;;17.17;8.35;;;;;;;-142.43;100.00;63430.59;4964135;29;20073;-81
2024/01/04 07:45:00;;;;;;;13.57;8.40;;;;;;;-142.43;100.00;63430.59;4951082;29;20071;-82
2024/01/04 07:47:27;;;;;;;11.05;7.07;;;;;;;-142.43;100.00;63430.59;4963700;29;20137;-81
2024/01/04 07:49:55;;;;;;;8.85;5.82;;;;;;;-142.43;100.00;63430.59;4961780;29;20104;-82
2024/01/04 07:52:22;;;;;;;12.18;5.85;;;;;;;-142.43;100.00;63430.59;4964638;29;20426;-82
2024/01/04 07:54:48;;;;;;;7.38;5.10;;;;;;;-142.43;100.00;63430.59;4959097;29;20135;-82
2024/01/04 07:57:15;;;;;;;9.32;5.82;;;;;;;-142.43;100.00;63430.59;4963686;29;20119;-83
2024/01/04 07:59:41;;;;;;;9.65;4.88;;;;;;;-142.43;100.00;63430.59;4964155;29;20101;-81
2024/01/04 08:02:08;;;;;;;8.77;5.15;;;;;;;-142.43;100.00;63430.59;4960349;29;20074;-80
2024/01/04 08:04:35;;;;;;;14.02;5.88;;;;;;;-142.43;100.00;63430.59;4960735;29;20051;-80
2024/01/04 08:07:03;;;;;;;15.98;5.43;;;;;;;-142.43;100.00;63430.59;4963287;29;20138;-81
2024/01/04 08:09:29;;;;;;;16.17;5.05;;;;;;;-142.43;100.00;63430.59;4957647;29;20119;-83
2024/01/04 08:11:56;;;;;;;8.80;5.30;;;;;;;-142.43;100.00;63430.59;4965931;29;20082;-81
2024/01/04 08:14:23;;;;;;;11.75;4.97;;;;;;;-142.43;100.00;63430.59;4964481;29;20063;-81
2024/01/04 08:16:49;;;;;;;12.20;5.35;;;;;;;-142.43;100.00;63430.59;4968099;29;20058;-81
2024/01/04 08:19:17;;;;;;;11.27;5.00;;;;;;;-142.43;100.00;63430.59;4963892;29;20079;-82
2024/01/04 08:21:44;;;;;;;18.88;6.00;;;;;;;-142.43;100.00;63430.59;4962082;29;20058;-81
2024/01/04 08:24:12;;;;;;;14.48;6.43;;;;;;;-142.43;100.00;63430.59;4953366;29;20114;-80
2024/01/04 08:26:42;;;;;;;13.48;6.55;;;;;;;-142.43;100.00;63430.59;4955447;29;20126;-79
2024/01/04 08:29:08;;;;;;;13.02;6.43;;;;;;;-142.43;100.00;63430.59;4959779;29;20441;-81
2024/01/04 08:31:36;;;;;;;15.50;6.82;;;;;;;-142.43;100.00;63430.59;4958618;29;20054;-82
2024/01/04 08:34:02;;;;;;;12.25;5.78;;;;;;;-142.43;100.00;63430.59;4957500;29;20047;-83
2024/01/04 08:36:29;;;;;;;17.88;7.18;;;;;;;-142.43;100.00;63430.59;4956344;28;20118;-84
2024/01/04 08:38:56;;;;;;;15.40;6.40;;;;;;;-142.43;100.00;63430.59;4960293;29;20135;-83
2024/01/04 08:41:24;;;;;;;13.70;7.55;;;;;;;-142.43;100.00;63430.59;4958602;29;20055;-86
2024/01/04 08:43:51;;;;;;;13.82;5.88;;;;;;;-142.43;100.00;63430.59;4952886;29;20076;-85
2024/01/04 08:46:17;;;;;;;10.98;5.53;;;;;;;-142.43;100.00;63430.59;4961451;28;20115;-85
2024/01/04 08:48:44;;;;;;;17.83;4.75;;;;;;;-142.43;100.00;63430.59;4960818;29;20540;-85
2024/01/04 08:51:10;;;;;;;11.48;4.70;;;;;;;-142.43;100.00;63430.59;4961220;29;20051;-81
2024/01/04 08:53:41;;;;;;;10.95;3.92;;;;;;;-142.43;100.00;63430.59;4953903;29;20056;-79
2024/01/04 08:56:08;;;;;;;13.38;3.90;;;;;;;-142.43;100.00;63430.59;4959709;29;20051;-81
2024/01/04 08:58:37;;;;;;;12.50;4.32;;;;;;;-142.43;100.00;63430.59;4955867;29;20138;-82
2024/01/04 09:01:04;;;;;;;7.20;4.10;;;;;;;-142.43;100.00;63430.59;4959072;29;20055;-80
2024/01/04 09:03:32;;;;;;;9.32;4.20;;;;;;;-142.43;100.00;63430.59;4955955;29;20130;-80
2024/01/04 09:05:58;;;;;;;7.22;4.30;;;;;;;-142.43;100.00;63430.59;4955639;29;20086;-81
2024/01/04 09:08:26;;;;;;;8.15;4.22;;;;;;;-142.43;100.00;63430.59;4957658;29;20054;-80
2024/01/04 09:10:53;;;;;;;13.10;4.97;;;;;;;-142.43;100.00;63430.59;4950454;29;20070;-81
2024/01/04 09:13:20;;;;;;;6.93;4.03;;;;;;;-142.43;100.00;63430.59;4955590;29;20565;-80
2024/01/04 09:15:49;;;;;;;8.40;3.70;;;;;;;-142.43;100.00;63430.59;4950791;29;20058;-80
2024/01/04 09:18:15;;;;;;;4.85;3.70;;;;;;;-142.43;100.00;63430.59;4951662;29;20434;-80
2024/01/04 09:20:42;;;;;;;8.15;3.80;;;;;;;-142.43;100.00;63430.59;4956316;29;20051;-80
2024/01/04 09:23:09;;;;;;;7.05;3.75;;;;;;;-142.43;100.00;63430.59;4951034;29;20097;-80
2024/01/04 09:25:35;;;;;;;6.80;3.25;;;;;;;-142.43;100.00;63430.59;4955787;29;20095;-83
2024/01/04 09:28:02;;;;;;;8.18;3.75;;;;;;;-142.43;100.00;63430.59;4961843;29;20054;-82
2024/01/04 09:30:30;;;;;;;9.25;3.78;;;;;;;-142.43;100.00;63430.59;4956311;29;20055;-82
2024/01/04 09:32:58;;;;;;;8.43;3.63;;;;;;;-142.43;100.00;63430.59;4966104;29;20130;-81
2024/01/04 09:35:25;;;;;;;6.50;3.72;;;;;;;-142.43;100.00;63430.59;4968844;29;20496;-82
2024/01/04 09:37:53;;;;;;;5.13;3.60;;;;;;;-142.43;100.00;63430.59;4960872;29;20103;-82
2024/01/04 09:40:20;;;;;;;5.72;3.65;;;;;;;-142.43;100.00;63430.59;4958579;29;20102;-82
2024/01/04 09:42:51;;;;;;;7.97;3.88;;;;;;;-142.43;100.00;63430.59;4957859;29;20158;-82
2024/01/04 09:45:23;;;;;;;8.13;4.35;;;;;;;-142.43;100.00;63430.59;4957322;29;20055;-83
2024/01/04 09:47:51;;;;;;;9.35;4.05;;;;;;;-142.43;100.00;63430.59;4958145;29;20056;-83
2024/01/04 09:50:20;;;;;;;8.25;4.40;;;;;;;-142.43;100.00;63430.59;4953194;29;20100;-82
2024/01/04 09:52:47;;;;;;;10.13;4.32;;;;;;;-142.43;100.00;63430.59;4957651;29;20070;-83
2024/01/04 09:55:14;;;;;;;10.02;5.55;;;;;;;-142.43;100.00;63430.59;4956472;29;20138;-82
2024/01/04 09:57:41;;;;;;;9.05;4.32;;;;;;;-142.43;100.00;63430.59;4957045;29;20485;-83
2024/01/04 10:00:09;;;;;;;6.65;4.30;;;;;;;-142.43;100.00;63430.59;4952338;29;20538;-82
2024/01/04 10:02:41;;;;;;;10.38;4.65;;;;;;;-142.43;100.00;63430.59;4952207;29;20138;-82
2024/01/04 10:05:10;;;;;;;9.77;5.10;;;;;;;-142.43;100.00;63430.59;4959235;29;20047;-82
2024/01/04 10:07:44;;;;;;;10.65;5.00;;;;;;;-142.43;100.00;63430.59;4960743;29;20047;-83
2024/01/04 10:10:18;;;;;;;9.23;4.63;;;;;;;-142.43;100.00;63430.59;4964973;29;20142;-82
2024/01/04 10:12:44;;;;;;;8.02;4.90;;;;;;;-142.43;100.00;63430.59;4964882;29;20054;-83
2024/01/04 10:15:11;;;;;;;11.80;5.43;;;;;;;-142.43;100.00;63430.59;4966359;29;20110;-82
2024/01/04 10:17:38;;;;;;;7.68;5.18;;;;;;;-142.43;100.00;63430.59;4964360;29;20043;-82
2024/01/04 10:20:07;;;;;;;8.30;5.15;;;;;;;-142.43;100.00;63430.59;4964098;29;20047;-82
2024/01/04 10:22:34;;;;;;;10.15;4.55;;;;;;;-142.43;100.00;63430.59;4963518;29;20058;-82
2024/01/04 10:25:08;;;;;;;9.05;5.35;;;;;;;-142.43;100.00;63430.59;4966911;29;20055;-82
2024/01/04 10:27:35;;;;;;;11.48;4.80;;;;;;;-142.43;100.00;63430.59;4970013;29;20299;-81
2024/01/04 10:30:04;;;;;;;11.18;5.13;;;;;;;-142.43;100.00;63430.59;4970997;29;20051;-81
2024/01/04 10:32:31;;;;;;;9.75;4.57;;;;;;;-142.43;100.00;63430.59;4968403;29;20043;-82
2024/01/04 10:35:03;;;;;;;11.82;5.32;;;;;;;-142.43;100.00;63430.59;4965187;29;20082;-82
2024/01/04 10:37:30;;;;;;;9.18;3.75;;;;;;;-142.43;100.00;63430.59;4964388;29;20039;-81
2024/01/04 10:40:01;;;;;;;8.25;4.10;;;;;;;-142.43;100.00;63430.59;4958902;29;20079;-80
2024/01/04 10:42:29;;;;;;;7.28;4.20;;;;;;;-142.43;100.00;63430.59;4966702;29;20078;-82
2024/01/04 10:44:56;;;;;;;9.60;4.07;;;;;;;-142.43;100.00;63430.59;4967968;29;20058;-83
2024/01/04 10:47:24;;;;;;;7.85;3.63;;;;;;;-142.43;100.00;63430.59;4965024;29;20102;-83
2024/01/04 10:49:58;;;;;;;7.93;3.45;;;;;;;-142.43;100.00;63430.59;4966328;29;20111;-83
2024/01/04 10:52:29;;;;;;;6.93;3.60;;;;;;;-142.43;100.00;63430.59;4967965;29;20051;-83
2024/01/04 10:54:58;;;;;;;9.63;3.80;;;;;;;-142.43;100.00;63430.59;4971832;29;20039;-82
2024/01/04 10:57:27;;;;;;;10.43;3.63;;;;;;;-142.43;100.00;63430.59;4964880;29;20111;-81
2024/01/04 10:59:56;;;;;;;8.88;4.45;;;;;;;-142.43;100.00;63430.59;4969956;29;20109;-83
2024/01/04 11:02:26;;;;;;;10.23;4.05;;;;;;;-142.43;100.00;63430.59;4969890;29;20115;-82
2024/01/04 11:04:53;;;;;;;6.32;3.90;;;;;;;-142.43;100.00;63430.59;4968887;29;20075;-80
2024/01/04 11:07:22;;;;;;;9.73;4.20;;;;;;;-142.43;100.00;63430.59;4968502;29;20078;-81